Adriatic Highway — 7JDP — position and weather

sailwx.info

Track history (hours):
 
Tides and Currents Weather Stations Pressure Air Temp Water Temp Dewpoint Dewpoint Depression Visibility Wind Speed Wind Dir Waves Ship Positions

Adriatic Highway

Last reported at 2018-Jun-22 06:52 UTC. Time now 2018-Jun-24 01:31 UTC.
Position N 36°14' E 015°16'.

Length 199 m; draft 9.3 m.

Type: Cargo ship. MMSI: 432665000.

Date/timePositionNaut miles runAvg speedWind from/ knotsBaromVisibWave heightAir tempDewpointWater temp
2018-Jun-22 06:52N 36°14' E 015°16'816.4
2018-Jun-22 06:22N 36°17' E 015°07'616.3
2018-Jun-22 05:59N 36°18' E 014°59'816.4
2018-Jun-22 05:29N 36°21' E 014°50'816.2
2018-Jun-22 05:00N 36°24' E 014°40'816.2
2018-Jun-22 04:30N 36°26' E 014°31'816.5
2018-Jun-22 04:00N 36°28' E 014°21'1116.8
2018-Jun-22 03:21N 36°32' E 014°08'716.9
2018-Jun-22 02:56N 36°34' E 013°60'716.8
2018-Jun-22 02:30N 36°37' E 013°52'816.8
2018-Jun-22 02:00N 36°40' E 013°42'816.4
2018-Jun-22 01:29N 36°43' E 013°32'816.0
2018-Jun-22 01:00N 36°46' E 013°23'816.0
2018-Jun-22 00:30N 36°48' E 013°13'815.8
2018-Jun-22 00:00N 36°51' E 013°04'816.1
2018-Jun-21 23:30N 36°54' E 012°54'816.0
2018-Jun-21 23:00N 36°54' E 012°45'29415.8
2018-Jun-21 04:22N 37°15' E 006°37'3616.0
2018-Jun-21 02:07N 37°13' E 005°52'515.8
2018-Jun-21 01:49N 37°12' E 005°46'515.8
2018-Jun-21 01:30N 37°12' E 005°40'815.9
2018-Jun-21 00:59N 37°11' E 005°29'815.8
2018-Jun-21 00:30N 37°11' E 005°20'816.0
2018-Jun-21 00:00N 37°10' E 005°10'815.9
2018-Jun-20 23:30N 37°10' E 004°60'815.8
2018-Jun-20 23:00N 37°09' E 004°50'815.7
2018-Jun-20 22:29N 37°09' E 004°40'816.1
2018-Jun-20 22:01N 37°08' E 004°30'816.0
2018-Jun-20 21:30N 37°08' E 004°20'815.8
2018-Jun-20 21:00N 37°07' E 004°10'815.6
2018-Jun-20 20:30N 37°07' E 004°00'815.5
2018-Jun-20 20:00N 37°06' E 003°51'815.1
2018-Jun-20 19:30N 37°05' E 003°41'715.0
2018-Jun-20 19:00N 37°04' E 003°32'714.5
2018-Jun-20 18:30N 37°03' E 003°23'714.6
2018-Jun-20 18:00N 37°02' E 003°14'714.3
2018-Jun-20 17:30N 37°01' E 003°05'714.8
2018-Jun-20 17:01N 36°60' E 002°56'815.1
2018-Jun-20 16:31N 36°59' E 002°47'815.2
2018-Jun-20 16:01N 36°58' E 002°37'815.0
2018-Jun-20 15:30N 36°56' E 002°28'815.3
2018-Jun-20 15:01N 36°55' E 002°19'815.4
2018-Jun-20 14:30N 36°54' E 002°09'815.5
2018-Jun-20 14:01N 36°53' E 001°59'815.6
2018-Jun-20 13:29N 36°52' E 001°49'815.9
2018-Jun-20 12:57N 36°51' E 001°39'5116.2
2018-Jun-20 09:48N 36°43' E 000°36'1516.2
2018-Jun-20 08:52N 36°41' E 000°17'3115.3
2018-Jun-20 06:50N 36°36' W 000°21'815.7
2018-Jun-20 06:20N 36°35' W 000°30'615.1
2018-Jun-20 05:58N 36°34' W 000°37'33715.8
2018-Jun-19 08:38N 36°12' W 007°35'215.9
2018-Jun-19 08:30N 36°12' W 007°37'1015.8
2018-Jun-19 07:54N 36°15' W 007°48'816.0
2018-Jun-19 07:25N 36°17' W 007°58'1215.5
2018-Jun-19 06:39N 36°20' W 008°12'415.5
2018-Jun-19 06:22N 36°21' W 008°17'615.7
2018-Jun-19 06:00N 36°22' W 008°24'915.8
2018-Jun-19 05:28N 36°24' W 008°34'716.0
2018-Jun-19 05:00N 36°26' W 008°43'915.8
2018-Jun-19 04:26N 36°28' W 008°54'715.6
2018-Jun-19 04:00N 36°30' W 009°02'1015.7
2018-Jun-19 03:23N 36°33' W 009°14'615.1
2018-Jun-19 03:00N 36°36' W 009°20'815.7
2018-Jun-19 02:29N 36°42' W 009°27'815.8
2018-Jun-19 02:00N 36°48' W 009°33'816.1
2018-Jun-19 01:30N 36°56' W 009°35'816.3
2018-Jun-19 01:00N 37°04' W 009°37'816.3
2018-Jun-19 00:30N 37°12' W 009°40'816.5
2018-Jun-19 00:00N 37°20' W 009°42'816.3
2018-Jun-18 23:30N 37°28' W 009°44'816.3
2018-Jun-18 23:00N 37°36' W 009°47'816.1
2018-Jun-18 22:30N 37°43' W 009°49'816.1
2018-Jun-18 22:00N 37°51' W 009°51'815.9
2018-Jun-18 21:30N 37°59' W 009°54'816.5
2018-Jun-18 21:00N 38°07' W 009°56'816.2
2018-Jun-18 20:30N 38°15' W 009°58'816.1
2018-Jun-18 20:00N 38°23' W 010°01'816.0
2018-Jun-18 19:30N 38°31' W 010°03'816.0
2018-Jun-18 19:00N 38°38' W 010°06'815.8
2018-Jun-18 18:30N 38°46' W 010°08'815.8
2018-Jun-18 18:00N 38°54' W 010°08'815.7
2018-Jun-18 17:30N 39°02' W 010°08'815.7
2018-Jun-18 17:00N 39°10' W 010°07'816.1
2018-Jun-18 16:30N 39°18' W 010°07'816.4
2018-Jun-18 16:00N 39°26' W 010°06'816.2
2018-Jun-18 15:30N 39°34' W 010°06'816.3
2018-Jun-18 15:00N 39°42' W 010°06'816.0
2018-Jun-18 14:30N 39°50' W 010°06'816.1
2018-Jun-18 13:59N 39°59' W 010°06'816.5
2018-Jun-18 13:30N 40°06' W 010°06'816.1
2018-Jun-18 13:00N 40°14' W 010°06'816.1
2018-Jun-18 12:30N 40°23' W 010°06'816.1
2018-Jun-18 12:00N 40°31' W 010°06'816.1
2018-Jun-18 11:30N 40°39' W 010°06'816.1
2018-Jun-18 11:00N 40°47' W 010°06'816.3
2018-Jun-18 10:30N 40°55' W 010°06'816.2
2018-Jun-18 10:00N 41°03' W 010°06'916.0
2018-Jun-18 09:26N 41°12' W 010°06'42815.4
2018-Jun-17 05:34N 47°53' W 006°35'1013.9
2018-Jun-17 04:52N 48°02' W 006°29'3314.6
2018-Jun-17 02:36N 48°31' W 006°05'515.6
2018-Jun-17 02:18N 48°35' W 006°02'616.0
2018-Jun-17 01:55N 48°40' W 005°58'816.3
2018-Jun-17 01:24N 48°48' W 005°52'716.2
2018-Jun-17 01:00N 48°54' W 005°47'816.6
2018-Jun-17 00:30N 48°58' W 005°36'816.6
2018-Jun-17 00:01N 49°02' W 005°25'816.5
2018-Jun-16 23:31N 49°06' W 005°15'815.5
2018-Jun-16 22:58N 49°10' W 005°03'815.6
2018-Jun-16 22:28N 49°14' W 004°53'714.8
2018-Jun-16 22:00N 49°18' W 004°44'813.8
2018-Jun-16 21:26N 49°22' W 004°34'713.2
2018-Jun-16 20:57N 49°25' W 004°25'712.6
2018-Jun-16 20:25N 49°28' W 004°16'712.9
2018-Jun-16 19:53N 49°32' W 004°07'512.9
2018-Jun-16 19:30N 49°34' W 004°01'1213.1
2018-Jun-16 18:37N 49°40' W 003°45'313.5
2018-Jun-16 18:24N 49°42' W 003°41'614.2
2018-Jun-16 18:00N 49°45' W 003°34'714.7
2018-Jun-16 17:30N 49°49' W 003°24'815.5
2018-Jun-16 17:00N 49°52' W 003°14'816.6
2018-Jun-16 16:31N 49°57' W 003°03'917.3
2018-Jun-16 16:00N 49°60' W 002°50'918.0
2018-Jun-16 15:30N 50°02' W 002°37'918.4
2018-Jun-16 15:00N 50°05' W 002°23'5016.2
2018-Jun-16 11:55N 50°18' W 001°07'612.9
2018-Jun-16 11:28N 50°19' W 000°59'612.2
2018-Jun-16 11:00N 50°21' W 000°50'611.8
2018-Jun-16 10:30N 50°23' W 000°41'611.9
2018-Jun-16 09:57N 50°25' W 000°32'612.4
2018-Jun-16 09:30N 50°26' W 000°23'713.2
2018-Jun-16 09:00N 50°28' W 000°13'714.0
2018-Jun-16 08:30N 50°30' W 000°02'714.7
2018-Jun-16 08:00N 50°32' E 000°09'815.7
2018-Jun-16 07:31N 50°34' E 000°20'816.5
2018-Jun-16 07:01N 50°36' E 000°33'917.0
2018-Jun-16 06:30N 50°41' E 000°43'917.1
2018-Jun-16 06:01N 50°47' E 000°54'816.7
2018-Jun-16 05:30N 50°52' E 001°04'816.3
2018-Jun-16 05:00N 50°58' E 001°14'815.5
2018-Jun-16 04:31N 51°02' E 001°23'714.7
2018-Jun-16 04:01N 51°07' E 001°33'713.5
2018-Jun-16 03:30N 51°11' E 001°41'713.3
2018-Jun-16 03:00N 51°16' E 001°48'713.2
2018-Jun-16 02:30N 51°22' E 001°54'612.1
2018-Jun-16 02:00N 51°25' E 002°02'714.6
2018-Jun-16 01:30N 51°22' E 002°13'713.1
2018-Jun-16 01:00N 51°22' E 002°23'713.7
2018-Jun-16 00:31N 51°23' E 002°34'713.1
2018-Jun-16 00:01N 51°23' E 002°45'510.4
2018-Jun-15 23:31N 51°23' E 002°53'714.2
2018-Jun-15 23:01N 51°24' E 003°04'611.8
2018-Jun-15 22:30N 51°21' E 003°12'1 2.8
2018-Jun-15 22:00N 51°20' E 003°13'0 0.0
2018-Jun-15 21:30N 51°20' E 003°13'0 0.2
2018-Jun-15 21:00N 51°20' E 003°13'2 4.0
2018-Jun-15 20:26N 51°18' E 003°14'0 0.0
2018-Jun-15 19:59N 51°18' E 003°14'0 0.0
2018-Jun-15 19:29N 51°18' E 003°14'0 0.0
2018-Jun-15 18:59N 51°18' E 003°14'0 0.0
2018-Jun-15 18:29N 51°18' E 003°14'0 0.0
2018-Jun-15 17:59N 51°18' E 003°14'0 0.0
2018-Jun-15 17:26N 51°18' E 003°14'0 0.0
2018-Jun-15 16:56N 51°18' E 003°14'0 0.0
2018-Jun-15 16:29N 51°18' E 003°14'0 0.0
2018-Jun-15 15:59N 51°18' E 003°14'0 0.0
2018-Jun-15 15:29N 51°18' E 003°14'0 0.0
2018-Jun-15 14:59N 51°18' E 003°14'0 0.0
2018-Jun-15 14:29N 51°18' E 003°14'0 0.0
2018-Jun-15 13:59N 51°18' E 003°14'0 0.0
2018-Jun-15 13:29N 51°18' E 003°14'0 0.0
2018-Jun-15 12:59N 51°18' E 003°14'0 0.0
2018-Jun-15 12:29N 51°18' E 003°14'0 0.0
2018-Jun-15 11:59N 51°18' E 003°14'0 0.0
2018-Jun-15 11:20N 51°18' E 003°14'0 0.0
2018-Jun-15 10:50N 51°18' E 003°14'0 0.0
2018-Jun-15 10:23N 51°18' E 003°14'0 0.0
2018-Jun-15 09:59N 51°18' E 003°14'0 0.0
2018-Jun-15 09:29N 51°18' E 003°14'0 0.0
2018-Jun-15 08:56N 51°18' E 003°14'0 0.0
2018-Jun-15 08:26N 51°18' E 003°14'0 0.0
2018-Jun-15 07:59N 51°18' E 003°14'0 0.0
2018-Jun-15 07:26N 51°18' E 003°14'0 0.0
2018-Jun-15 06:59N 51°18' E 003°14'0 0.0
2018-Jun-15 06:29N 51°18' E 003°14'0 0.0
2018-Jun-15 05:59N 51°18' E 003°14'0 0.0
2018-Jun-15 05:29N 51°18' E 003°14'0 0.0
2018-Jun-15 04:56N 51°18' E 003°14'0 0.0
2018-Jun-15 04:29N 51°18' E 003°14'0 0.0
2018-Jun-15 03:59N 51°18' E 003°14'0 0.0
2018-Jun-15 03:29N 51°18' E 003°14'0 0.0
2018-Jun-15 02:59N 51°18' E 003°14'0 0.0
2018-Jun-15 02:29N 51°18' E 003°14'0 0.0
2018-Jun-15 01:56N 51°18' E 003°14'0 0.0
2018-Jun-15 01:26N 51°18' E 003°14'0 0.0
2018-Jun-15 00:56N 51°18' E 003°14'0 0.0
2018-Jun-15 00:29N 51°18' E 003°14'0 0.0
2018-Jun-14 23:59N 51°18' E 003°14'0 0.0
2018-Jun-14 23:26N 51°18' E 003°14'0 0.0
2018-Jun-14 22:59N 51°18' E 003°14'0 0.0
2018-Jun-14 22:29N 51°18' E 003°14'0 0.0
2018-Jun-14 21:53N 51°18' E 003°14'0 0.0
2018-Jun-14 21:29N 51°18' E 003°14'0 0.0
2018-Jun-14 21:00N 51°18' E 003°14'1 2.3
2018-Jun-14 20:30N 51°19' E 003°13'1 2.4
2018-Jun-14 20:00N 51°20' E 003°13'0 0.0
2018-Jun-14 19:30N 51°20' E 003°13'0 0.0
2018-Jun-14 19:00N 51°20' E 003°13'1 2.6
2018-Jun-14 18:30N 51°21' E 003°12'1 2.1
2018-Jun-14 18:00N 51°22' E 003°11'4 8.9
2018-Jun-14 17:30N 51°24' E 003°05'612.7
2018-Jun-14 17:00N 51°22' E 002°55'612.7
2018-Jun-14 16:30N 51°22' E 002°45'4 7.2
2018-Jun-14 16:00N 51°22' E 002°39'3 5.7
2018-Jun-14 15:29N 51°22' E 002°35'1 2.0
2018-Jun-14 14:51N 51°22' E 002°33'1 2.1
2018-Jun-14 14:23N 51°22' E 002°31'1 3.0
2018-Jun-14 14:00N 51°22' E 002°29'2 3.5
2018-Jun-14 13:28N 51°21' E 002°27'2 4.6
2018-Jun-14 13:00N 51°20' E 002°24'3 5.7
2018-Jun-14 12:30N 51°19' E 002°19'510.3
2018-Jun-14 12:00N 51°18' E 002°11'5 9.9
2018-Jun-14 11:30N 51°21' E 002°05'5 9.8
2018-Jun-14 11:00N 51°24' E 001°60'5 9.1
2018-Jun-14 10:30N 51°28' E 002°03'511.0
2018-Jun-14 10:00N 51°33' E 002°09'714.4
2018-Jun-14 09:30N 51°38' E 002°16'816.9
2018-Jun-14 09:00N 51°45' E 002°25'917.0
2018-Jun-14 08:30N 51°51' E 002°34'817.0
2018-Jun-14 08:00N 51°58' E 002°43'916.8
2018-Jun-14 07:30N 52°04' E 002°51'816.4
2018-Jun-14 07:00N 52°10' E 002°60'816.0
2018-Jun-14 06:30N 52°17' E 003°08'815.5
2018-Jun-14 06:00N 52°23' E 003°15'815.1
2018-Jun-14 05:30N 52°30' E 003°22'714.7
2018-Jun-14 05:00N 52°36' E 003°29'714.4
2018-Jun-14 04:30N 52°41' E 003°36'714.3
2018-Jun-14 04:01N 52°47' E 003°44'714.0
2018-Jun-14 03:30N 52°52' E 003°51'714.0
2018-Jun-14 03:00N 52°57' E 003°59'714.1
2018-Jun-14 02:30N 53°01' E 004°09'714.6
2018-Jun-14 02:00N 53°06' E 004°18'815.0
2018-Jun-14 01:30N 53°12' E 004°26'815.7
2018-Jun-14 00:59N 53°19' E 004°32'815.8
2018-Jun-14 00:30N 53°26' E 004°37'715.2
2018-Jun-14 00:00N 53°30' E 004°47'816.1
2018-Jun-13 23:30N 53°33' E 005°00'815.9
2018-Jun-13 23:00N 53°35' E 005°13'815.8
2018-Jun-13 22:30N 53°38' E 005°25'815.3
2018-Jun-13 22:00N 53°40' E 005°38'7713.7
2018-Jun-13 16:23N 53°53' E 007°46'411.5
2018-Jun-13 16:00N 53°52' E 007°54'714.1
2018-Jun-13 15:30N 53°50' E 008°05'815.7
2018-Jun-13 15:00N 53°44' E 008°14'816.0
2018-Jun-13 14:30N 53°39' E 008°24'612.7
2018-Jun-13 14:01N 53°35' E 008°32'1 1.5
2018-Jun-13 13:30N 53°34' E 008°33'0 1.0
2018-Jun-13 13:00N 53°35' E 008°34'0 0.0
2018-Jun-13 12:30N 53°35' E 008°34'0 0.0
2018-Jun-13 11:57N 53°35' E 008°34'0 0.0
2018-Jun-13 11:30N 53°35' E 008°34'0 0.0
2018-Jun-13 11:00N 53°35' E 008°34'0 0.0
2018-Jun-13 10:30N 53°35' E 008°34'0 0.0
2018-Jun-13 10:00N 53°35' E 008°34'0 0.0
2018-Jun-13 09:30N 53°35' E 008°34'0 0.0
2018-Jun-13 09:00N 53°35' E 008°34'0 0.0
2018-Jun-13 08:30N 53°35' E 008°34'0 0.0
2018-Jun-13 08:00N 53°35' E 008°34'0 0.0
2018-Jun-13 07:30N 53°35' E 008°34'0 0.0
2018-Jun-13 07:00N 53°35' E 008°34'0 0.0
2018-Jun-13 06:30N 53°35' E 008°34'0 0.0
2018-Jun-13 06:00N 53°35' E 008°34'0 0.0
2018-Jun-13 05:30N 53°35' E 008°34'0 0.0
2018-Jun-13 05:00N 53°35' E 008°34'0 0.0
2018-Jun-13 04:30N 53°35' E 008°34'0 0.0
2018-Jun-13 04:00N 53°35' E 008°34'0 0.0
2018-Jun-13 03:30N 53°35' E 008°34'0 0.0
2018-Jun-13 03:00N 53°35' E 008°34'0 0.0
2018-Jun-13 02:30N 53°35' E 008°34'0 0.0
2018-Jun-13 02:00N 53°35' E 008°34'0 0.0
2018-Jun-13 01:30N 53°35' E 008°34'0 0.0
2018-Jun-13 01:00N 53°35' E 008°34'0 0.0
2018-Jun-13 00:30N 53°35' E 008°34'0 0.0
2018-Jun-13 00:00N 53°35' E 008°34'0 0.0
2018-Jun-12 23:30N 53°35' E 008°34'0 0.0
2018-Jun-12 23:00N 53°35' E 008°34'0 0.0
2018-Jun-12 22:30N 53°35' E 008°34'0 0.0
2018-Jun-12 22:00N 53°35' E 008°34'0 0.0
2018-Jun-12 21:30N 53°35' E 008°34'0 0.0
2018-Jun-12 21:00N 53°35' E 008°34'0 0.0
2018-Jun-12 20:30N 53°35' E 008°34'0 0.0
2018-Jun-12 20:00N 53°35' E 008°34'0 0.0
2018-Jun-12 19:30N 53°35' E 008°34'0 0.0
2018-Jun-12 19:00N 53°35' E 008°34'0 0.0
2018-Jun-12 18:30N 53°35' E 008°34'0 1.0
2018-Jun-12 18:00N 53°34' E 008°33'0 0.7
2018-Jun-12 17:30N 53°34' E 008°33'3 5.0
2018-Jun-12 17:01N 53°36' E 008°30'611.4
2018-Jun-12 16:30N 53°40' E 008°23'612.4
2018-Jun-12 16:00N 53°44' E 008°15'612.4
2018-Jun-12 15:30N 53°48' E 008°08'612.7
2018-Jun-12 15:00N 53°51' E 007°58'611.4
2018-Jun-12 14:31N 53°52' E 007°49'3 4.9
2018-Jun-12 14:00N 53°54' E 007°46'  
Track history (hours):
 
Tides and Currents Weather Stations Pressure Air Temp Water Temp Dewpoint Dewpoint Depression Visibility Wind Speed Wind Dir Waves Ship Positions

Adriatic Highway

Last reported at 2018-Jun-22 06:52 UTC. Time now 2018-Jun-24 01:31 UTC.
Position N 36°14' E 015°16'.

Length 199 m; draft 9.3 m.

Type: Cargo ship. MMSI: 432665000.

Date/timePositionNaut miles runAvg speedWind from/ knotsBaromVisibWave heightAir tempDewpointWater temp
2018-Jun-22 06:52N 36°14' E 015°16'816.4
2018-Jun-22 06:22N 36°17' E 015°07'616.3
2018-Jun-22 05:59N 36°18' E 014°59'816.4
2018-Jun-22 05:29N 36°21' E 014°50'816.2
2018-Jun-22 05:00N 36°24' E 014°40'816.2
2018-Jun-22 04:30N 36°26' E 014°31'816.5
2018-Jun-22 04:00N 36°28' E 014°21'1116.8
2018-Jun-22 03:21N 36°32' E 014°08'716.9
2018-Jun-22 02:56N 36°34' E 013°60'716.8
2018-Jun-22 02:30N 36°37' E 013°52'816.8
2018-Jun-22 02:00N 36°40' E 013°42'816.4
2018-Jun-22 01:29N 36°43' E 013°32'816.0
2018-Jun-22 01:00N 36°46' E 013°23'816.0
2018-Jun-22 00:30N 36°48' E 013°13'815.8
2018-Jun-22 00:00N 36°51' E 013°04'816.1
2018-Jun-21 23:30N 36°54' E 012°54'816.0
2018-Jun-21 23:00N 36°54' E 012°45'29415.8
2018-Jun-21 04:22N 37°15' E 006°37'3616.0
2018-Jun-21 02:07N 37°13' E 005°52'515.8
2018-Jun-21 01:49N 37°12' E 005°46'515.8
2018-Jun-21 01:30N 37°12' E 005°40'815.9
2018-Jun-21 00:59N 37°11' E 005°29'815.8
2018-Jun-21 00:30N 37°11' E 005°20'816.0
2018-Jun-21 00:00N 37°10' E 005°10'815.9
2018-Jun-20 23:30N 37°10' E 004°60'815.8
2018-Jun-20 23:00N 37°09' E 004°50'815.7
2018-Jun-20 22:29N 37°09' E 004°40'816.1
2018-Jun-20 22:01N 37°08' E 004°30'816.0
2018-Jun-20 21:30N 37°08' E 004°20'815.8
2018-Jun-20 21:00N 37°07' E 004°10'815.6
2018-Jun-20 20:30N 37°07' E 004°00'815.5
2018-Jun-20 20:00N 37°06' E 003°51'815.1
2018-Jun-20 19:30N 37°05' E 003°41'715.0
2018-Jun-20 19:00N 37°04' E 003°32'714.5
2018-Jun-20 18:30N 37°03' E 003°23'714.6
2018-Jun-20 18:00N 37°02' E 003°14'714.3
2018-Jun-20 17:30N 37°01' E 003°05'714.8
2018-Jun-20 17:01N 36°60' E 002°56'815.1
2018-Jun-20 16:31N 36°59' E 002°47'815.2
2018-Jun-20 16:01N 36°58' E 002°37'815.0
2018-Jun-20 15:30N 36°56' E 002°28'815.3
2018-Jun-20 15:01N 36°55' E 002°19'815.4
2018-Jun-20 14:30N 36°54' E 002°09'815.5
2018-Jun-20 14:01N 36°53' E 001°59'815.6
2018-Jun-20 13:29N 36°52' E 001°49'815.9
2018-Jun-20 12:57N 36°51' E 001°39'5116.2
2018-Jun-20 09:48N 36°43' E 000°36'1516.2
2018-Jun-20 08:52N 36°41' E 000°17'3115.3
2018-Jun-20 06:50N 36°36' W 000°21'815.7
2018-Jun-20 06:20N 36°35' W 000°30'615.1
2018-Jun-20 05:58N 36°34' W 000°37'33715.8
2018-Jun-19 08:38N 36°12' W 007°35'215.9
2018-Jun-19 08:30N 36°12' W 007°37'1015.8
2018-Jun-19 07:54N 36°15' W 007°48'816.0
2018-Jun-19 07:25N 36°17' W 007°58'1215.5
2018-Jun-19 06:39N 36°20' W 008°12'415.5
2018-Jun-19 06:22N 36°21' W 008°17'615.7
2018-Jun-19 06:00N 36°22' W 008°24'915.8
2018-Jun-19 05:28N 36°24' W 008°34'716.0
2018-Jun-19 05:00N 36°26' W 008°43'915.8
2018-Jun-19 04:26N 36°28' W 008°54'715.6
2018-Jun-19 04:00N 36°30' W 009°02'1015.7
2018-Jun-19 03:23N 36°33' W 009°14'615.1
2018-Jun-19 03:00N 36°36' W 009°20'815.7
2018-Jun-19 02:29N 36°42' W 009°27'815.8
2018-Jun-19 02:00N 36°48' W 009°33'816.1
2018-Jun-19 01:30N 36°56' W 009°35'816.3
2018-Jun-19 01:00N 37°04' W 009°37'816.3
2018-Jun-19 00:30N 37°12' W 009°40'816.5
2018-Jun-19 00:00N 37°20' W 009°42'816.3
2018-Jun-18 23:30N 37°28' W 009°44'816.3
2018-Jun-18 23:00N 37°36' W 009°47'816.1
2018-Jun-18 22:30N 37°43' W 009°49'816.1
2018-Jun-18 22:00N 37°51' W 009°51'815.9
2018-Jun-18 21:30N 37°59' W 009°54'816.5
2018-Jun-18 21:00N 38°07' W 009°56'816.2
2018-Jun-18 20:30N 38°15' W 009°58'816.1
2018-Jun-18 20:00N 38°23' W 010°01'816.0
2018-Jun-18 19:30N 38°31' W 010°03'816.0
2018-Jun-18 19:00N 38°38' W 010°06'815.8
2018-Jun-18 18:30N 38°46' W 010°08'815.8
2018-Jun-18 18:00N 38°54' W 010°08'815.7
2018-Jun-18 17:30N 39°02' W 010°08'815.7
2018-Jun-18 17:00N 39°10' W 010°07'816.1
2018-Jun-18 16:30N 39°18' W 010°07'816.4
2018-Jun-18 16:00N 39°26' W 010°06'816.2
2018-Jun-18 15:30N 39°34' W 010°06'816.3
2018-Jun-18 15:00N 39°42' W 010°06'816.0
2018-Jun-18 14:30N 39°50' W 010°06'816.1
2018-Jun-18 13:59N 39°59' W 010°06'816.5
2018-Jun-18 13:30N 40°06' W 010°06'816.1
2018-Jun-18 13:00N 40°14' W 010°06'816.1
2018-Jun-18 12:30N 40°23' W 010°06'816.1
2018-Jun-18 12:00N 40°31' W 010°06'816.1
2018-Jun-18 11:30N 40°39' W 010°06'816.1
2018-Jun-18 11:00N 40°47' W 010°06'816.3
2018-Jun-18 10:30N 40°55' W 010°06'816.2
2018-Jun-18 10:00N 41°03' W 010°06'916.0
2018-Jun-18 09:26N 41°12' W 010°06'42815.4
2018-Jun-17 05:34N 47°53' W 006°35'1013.9
2018-Jun-17 04:52N 48°02' W 006°29'3314.6
2018-Jun-17 02:36N 48°31' W 006°05'515.6
2018-Jun-17 02:18N 48°35' W 006°02'616.0
2018-Jun-17 01:55N 48°40' W 005°58'816.3
2018-Jun-17 01:24N 48°48' W 005°52'716.2
2018-Jun-17 01:00N 48°54' W 005°47'816.6
2018-Jun-17 00:30N 48°58' W 005°36'816.6
2018-Jun-17 00:01N 49°02' W 005°25'816.5
2018-Jun-16 23:31N 49°06' W 005°15'815.5
2018-Jun-16 22:58N 49°10' W 005°03'815.6
2018-Jun-16 22:28N 49°14' W 004°53'714.8
2018-Jun-16 22:00N 49°18' W 004°44'813.8
2018-Jun-16 21:26N 49°22' W 004°34'713.2
2018-Jun-16 20:57N 49°25' W 004°25'712.6
2018-Jun-16 20:25N 49°28' W 004°16'712.9
2018-Jun-16 19:53N 49°32' W 004°07'512.9
2018-Jun-16 19:30N 49°34' W 004°01'1213.1
2018-Jun-16 18:37N 49°40' W 003°45'313.5
2018-Jun-16 18:24N 49°42' W 003°41'614.2
2018-Jun-16 18:00N 49°45' W 003°34'714.7
2018-Jun-16 17:30N 49°49' W 003°24'815.5
2018-Jun-16 17:00N 49°52' W 003°14'816.6
2018-Jun-16 16:31N 49°57' W 003°03'917.3
2018-Jun-16 16:00N 49°60' W 002°50'918.0
2018-Jun-16 15:30N 50°02' W 002°37'918.4
2018-Jun-16 15:00N 50°05' W 002°23'5016.2
2018-Jun-16 11:55N 50°18' W 001°07'612.9
2018-Jun-16 11:28N 50°19' W 000°59'612.2
2018-Jun-16 11:00N 50°21' W 000°50'611.8
2018-Jun-16 10:30N 50°23' W 000°41'611.9
2018-Jun-16 09:57N 50°25' W 000°32'612.4
2018-Jun-16 09:30N 50°26' W 000°23'713.2
2018-Jun-16 09:00N 50°28' W 000°13'714.0
2018-Jun-16 08:30N 50°30' W 000°02'714.7
2018-Jun-16 08:00N 50°32' E 000°09'815.7
2018-Jun-16 07:31N 50°34' E 000°20'816.5
2018-Jun-16 07:01N 50°36' E 000°33'917.0
2018-Jun-16 06:30N 50°41' E 000°43'917.1
2018-Jun-16 06:01N 50°47' E 000°54'816.7
2018-Jun-16 05:30N 50°52' E 001°04'816.3
2018-Jun-16 05:00N 50°58' E 001°14'815.5
2018-Jun-16 04:31N 51°02' E 001°23'714.7
2018-Jun-16 04:01N 51°07' E 001°33'713.5
2018-Jun-16 03:30N 51°11' E 001°41'713.3
2018-Jun-16 03:00N 51°16' E 001°48'713.2
2018-Jun-16 02:30N 51°22' E 001°54'612.1
2018-Jun-16 02:00N 51°25' E 002°02'714.6
2018-Jun-16 01:30N 51°22' E 002°13'713.1
2018-Jun-16 01:00N 51°22' E 002°23'713.7
2018-Jun-16 00:31N 51°23' E 002°34'713.1
2018-Jun-16 00:01N 51°23' E 002°45'510.4
2018-Jun-15 23:31N 51°23' E 002°53'714.2
2018-Jun-15 23:01N 51°24' E 003°04'611.8
2018-Jun-15 22:30N 51°21' E 003°12'1 2.8
2018-Jun-15 22:00N 51°20' E 003°13'0 0.0
2018-Jun-15 21:30N 51°20' E 003°13'0 0.2
2018-Jun-15 21:00N 51°20' E 003°13'2 4.0
2018-Jun-15 20:26N 51°18' E 003°14'0 0.0
2018-Jun-15 19:59N 51°18' E 003°14'0 0.0
2018-Jun-15 19:29N 51°18' E 003°14'0 0.0
2018-Jun-15 18:59N 51°18' E 003°14'0 0.0
2018-Jun-15 18:29N 51°18' E 003°14'0 0.0
2018-Jun-15 17:59N 51°18' E 003°14'0 0.0
2018-Jun-15 17:26N 51°18' E 003°14'0 0.0
2018-Jun-15 16:56N 51°18' E 003°14'0 0.0
2018-Jun-15 16:29N 51°18' E 003°14'0 0.0
2018-Jun-15 15:59N 51°18' E 003°14'0 0.0
2018-Jun-15 15:29N 51°18' E 003°14'0 0.0
2018-Jun-15 14:59N 51°18' E 003°14'0 0.0
2018-Jun-15 14:29N 51°18' E 003°14'0 0.0
2018-Jun-15 13:59N 51°18' E 003°14'0 0.0
2018-Jun-15 13:29N 51°18' E 003°14'0 0.0
2018-Jun-15 12:59N 51°18' E 003°14'0 0.0
2018-Jun-15 12:29N 51°18' E 003°14'0 0.0
2018-Jun-15 11:59N 51°18' E 003°14'0 0.0
2018-Jun-15 11:20N 51°18' E 003°14'0 0.0
2018-Jun-15 10:50N 51°18' E 003°14'0 0.0
2018-Jun-15 10:23N 51°18' E 003°14'0 0.0
2018-Jun-15 09:59N 51°18' E 003°14'0 0.0
2018-Jun-15 09:29N 51°18' E 003°14'0 0.0
2018-Jun-15 08:56N 51°18' E 003°14'0 0.0
2018-Jun-15 08:26N 51°18' E 003°14'0 0.0
2018-Jun-15 07:59N 51°18' E 003°14'0 0.0
2018-Jun-15 07:26N 51°18' E 003°14'0 0.0
2018-Jun-15 06:59N 51°18' E 003°14'0 0.0
2018-Jun-15 06:29N 51°18' E 003°14'0 0.0
2018-Jun-15 05:59N 51°18' E 003°14'0 0.0
2018-Jun-15 05:29N 51°18' E 003°14'0 0.0
2018-Jun-15 04:56N 51°18' E 003°14'0 0.0
2018-Jun-15 04:29N 51°18' E 003°14'0 0.0
2018-Jun-15 03:59N 51°18' E 003°14'0 0.0
2018-Jun-15 03:29N 51°18' E 003°14'0 0.0
2018-Jun-15 02:59N 51°18' E 003°14'0 0.0
2018-Jun-15 02:29N 51°18' E 003°14'0 0.0
2018-Jun-15 01:56N 51°18' E 003°14'0 0.0
2018-Jun-15 01:26N 51°18' E 003°14'0 0.0
2018-Jun-15 00:56N 51°18' E 003°14'0 0.0
2018-Jun-15 00:29N 51°18' E 003°14'0 0.0
2018-Jun-14 23:59N 51°18' E 003°14'0 0.0
2018-Jun-14 23:26N 51°18' E 003°14'0 0.0
2018-Jun-14 22:59N 51°18' E 003°14'0 0.0
2018-Jun-14 22:29N 51°18' E 003°14'0 0.0
2018-Jun-14 21:53N 51°18' E 003°14'0 0.0
2018-Jun-14 21:29N 51°18' E 003°14'0 0.0
2018-Jun-14 21:00N 51°18' E 003°14'1 2.3
2018-Jun-14 20:30N 51°19' E 003°13'1 2.4
2018-Jun-14 20:00N 51°20' E 003°13'0 0.0
2018-Jun-14 19:30N 51°20' E 003°13'0 0.0
2018-Jun-14 19:00N 51°20' E 003°13'1 2.6
2018-Jun-14 18:30N 51°21' E 003°12'1 2.1
2018-Jun-14 18:00N 51°22' E 003°11'4 8.9
2018-Jun-14 17:30N 51°24' E 003°05'612.7
2018-Jun-14 17:00N 51°22' E 002°55'612.7
2018-Jun-14 16:30N 51°22' E 002°45'4 7.2
2018-Jun-14 16:00N 51°22' E 002°39'3 5.7
2018-Jun-14 15:29N 51°22' E 002°35'1 2.0
2018-Jun-14 14:51N 51°22' E 002°33'1 2.1
2018-Jun-14 14:23N 51°22' E 002°31'1 3.0
2018-Jun-14 14:00N 51°22' E 002°29'2 3.5
2018-Jun-14 13:28N 51°21' E 002°27'2 4.6
2018-Jun-14 13:00N 51°20' E 002°24'3 5.7
2018-Jun-14 12:30N 51°19' E 002°19'510.3
2018-Jun-14 12:00N 51°18' E 002°11'5 9.9
2018-Jun-14 11:30N 51°21' E 002°05'5 9.8
2018-Jun-14 11:00N 51°24' E 001°60'5 9.1
2018-Jun-14 10:30N 51°28' E 002°03'511.0
2018-Jun-14 10:00N 51°33' E 002°09'714.4
2018-Jun-14 09:30N 51°38' E 002°16'816.9
2018-Jun-14 09:00N 51°45' E 002°25'917.0
2018-Jun-14 08:30N 51°51' E 002°34'817.0
2018-Jun-14 08:00N 51°58' E 002°43'916.8
2018-Jun-14 07:30N 52°04' E 002°51'816.4
2018-Jun-14 07:00N 52°10' E 002°60'816.0
2018-Jun-14 06:30N 52°17' E 003°08'815.5
2018-Jun-14 06:00N 52°23' E 003°15'815.1
2018-Jun-14 05:30N 52°30' E 003°22'714.7
2018-Jun-14 05:00N 52°36' E 003°29'714.4
2018-Jun-14 04:30N 52°41' E 003°36'714.3
2018-Jun-14 04:01N 52°47' E 003°44'714.0
2018-Jun-14 03:30N 52°52' E 003°51'714.0
2018-Jun-14 03:00N 52°57' E 003°59'714.1
2018-Jun-14 02:30N 53°01' E 004°09'714.6
2018-Jun-14 02:00N 53°06' E 004°18'815.0
2018-Jun-14 01:30N 53°12' E 004°26'815.7
2018-Jun-14 00:59N 53°19' E 004°32'815.8
2018-Jun-14 00:30N 53°26' E 004°37'715.2
2018-Jun-14 00:00N 53°30' E 004°47'816.1
2018-Jun-13 23:30N 53°33' E 005°00'815.9
2018-Jun-13 23:00N 53°35' E 005°13'815.8
2018-Jun-13 22:30N 53°38' E 005°25'815.3
2018-Jun-13 22:00N 53°40' E 005°38'7713.7
2018-Jun-13 16:23N 53°53' E 007°46'411.5
2018-Jun-13 16:00N 53°52' E 007°54'714.1
2018-Jun-13 15:30N 53°50' E 008°05'815.7
2018-Jun-13 15:00N 53°44' E 008°14'816.0
2018-Jun-13 14:30N 53°39' E 008°24'612.7
2018-Jun-13 14:01N 53°35' E 008°32'1 1.5
2018-Jun-13 13:30N 53°34' E 008°33'0 1.0
2018-Jun-13 13:00N 53°35' E 008°34'0 0.0
2018-Jun-13 12:30N 53°35' E 008°34'0 0.0
2018-Jun-13 11:57N 53°35' E 008°34'0 0.0
2018-Jun-13 11:30N 53°35' E 008°34'0 0.0
2018-Jun-13 11:00N 53°35' E 008°34'0 0.0
2018-Jun-13 10:30N 53°35' E 008°34'0 0.0
2018-Jun-13 10:00N 53°35' E 008°34'0 0.0
2018-Jun-13 09:30N 53°35' E 008°34'0 0.0
2018-Jun-13 09:00N 53°35' E 008°34'0 0.0
2018-Jun-13 08:30N 53°35' E 008°34'0 0.0
2018-Jun-13 08:00N 53°35' E 008°34'0 0.0
2018-Jun-13 07:30N 53°35' E 008°34'0 0.0
2018-Jun-13 07:00N 53°35' E 008°34'0 0.0
2018-Jun-13 06:30N 53°35' E 008°34'0 0.0
2018-Jun-13 06:00N 53°35' E 008°34'0 0.0
2018-Jun-13 05:30N 53°35' E 008°34'0 0.0
2018-Jun-13 05:00N 53°35' E 008°34'0 0.0
2018-Jun-13 04:30N 53°35' E 008°34'0 0.0
2018-Jun-13 04:00N 53°35' E 008°34'0 0.0
2018-Jun-13 03:30N 53°35' E 008°34'0 0.0
2018-Jun-13 03:00N 53°35' E 008°34'0 0.0
2018-Jun-13 02:30N 53°35' E 008°34'0 0.0
2018-Jun-13 02:00N 53°35' E 008°34'0 0.0
2018-Jun-13 01:30N 53°35' E 008°34'0 0.0
2018-Jun-13 01:00N 53°35' E 008°34'0 0.0
2018-Jun-13 00:30N 53°35' E 008°34'0 0.0
2018-Jun-13 00:00N 53°35' E 008°34'0 0.0
2018-Jun-12 23:30N 53°35' E 008°34'0 0.0
2018-Jun-12 23:00N 53°35' E 008°34'0 0.0
2018-Jun-12 22:30N 53°35' E 008°34'0 0.0
2018-Jun-12 22:00N 53°35' E 008°34'0 0.0
2018-Jun-12 21:30N 53°35' E 008°34'0 0.0
2018-Jun-12 21:00N 53°35' E 008°34'0 0.0
2018-Jun-12 20:30N 53°35' E 008°34'0 0.0
2018-Jun-12 20:00N 53°35' E 008°34'0 0.0
2018-Jun-12 19:30N 53°35' E 008°34'0 0.0
2018-Jun-12 19:00N 53°35' E 008°34'0 0.0
2018-Jun-12 18:30N 53°35' E 008°34'0 1.0
2018-Jun-12 18:00N 53°34' E 008°33'0 0.7
2018-Jun-12 17:30N 53°34' E 008°33'3 5.0
2018-Jun-12 17:01N 53°36' E 008°30'611.4
2018-Jun-12 16:30N 53°40' E 008°23'612.4
2018-Jun-12 16:00N 53°44' E 008°15'612.4
2018-Jun-12 15:30N 53°48' E 008°08'612.7
2018-Jun-12 15:00N 53°51' E 007°58'611.4
2018-Jun-12 14:31N 53°52' E 007°49'3 4.9
2018-Jun-12 14:00N 53°54' E 007°46'  

Dump ship's entire track history